createdAt,value
2018-05-02T00:02:21.715Z,7.10
2018-05-02T00:04:49.188Z,7.10
2018-05-02T00:07:16.627Z,7.10
2018-05-02T00:09:44.090Z,7.10
2018-05-02T00:12:11.515Z,7.10
2018-05-02T00:14:39.003Z,7.10
2018-05-02T00:17:06.444Z,7.00
2018-05-02T00:19:33.885Z,7.00
2018-05-02T00:22:01.371Z,6.90
2018-05-02T00:24:28.802Z,6.90
2018-05-02T00:26:56.279Z,6.80
2018-05-02T00:29:23.758Z,6.80
2018-05-02T00:31:51.195Z,6.70
2018-05-02T00:34:18.638Z,6.70
2018-05-02T00:36:46.078Z,6.70
2018-05-02T00:39:14.281Z,6.70
2018-05-02T00:41:41.710Z,6.60
2018-05-02T00:44:09.215Z,6.60
2018-05-02T00:46:36.652Z,6.70
2018-05-02T00:49:14.197Z,6.70
2018-05-02T00:51:42.387Z,6.60
2018-05-02T00:54:10.596Z,6.70
2018-05-02T00:56:38.054Z,6.60
2018-05-02T00:59:05.510Z,6.60
2018-05-02T01:01:32.948Z,6.60
2018-05-02T01:04:00.383Z,6.50
2018-05-02T01:06:28.584Z,6.40
2018-05-02T01:08:56.890Z,6.40
2018-05-02T01:11:24.442Z,6.40
2018-05-02T01:13:51.889Z,6.40
2018-05-02T01:16:19.327Z,6.40
2018-05-02T01:18:46.771Z,6.30
2018-05-02T01:21:14.979Z,6.30
2018-05-02T01:23:42.439Z,6.30
2018-05-02T01:26:09.900Z,6.30
2018-05-02T01:28:37.387Z,6.20
2018-05-02T01:31:04.846Z,6.20
2018-05-02T01:33:32.297Z,6.20
2018-05-02T01:35:59.728Z,6.10
2018-05-02T01:38:27.215Z,6.10
2018-05-02T01:40:54.659Z,6.00
2018-05-02T01:43:22.128Z,6.00
2018-05-02T01:45:49.563Z,6.00
2018-05-02T01:48:17.007Z,5.90
2018-05-02T01:50:44.454Z,5.90
2018-05-02T01:53:12.798Z,5.90
2018-05-02T01:55:40.931Z,5.90
2018-05-02T01:58:08.373Z,5.90
2018-05-02T02:00:35.810Z,5.90
2018-05-02T02:03:04.049Z,5.90
2018-05-02T02:05:31.475Z,5.90
2018-05-02T02:07:58.910Z,5.80
2018-05-02T02:10:27.117Z,5.70
2018-05-02T02:12:54.598Z,5.70
2018-05-02T02:15:22.044Z,5.70
2018-05-02T02:17:49.575Z,5.80
2018-05-02T02:20:16.926Z,5.80
2018-05-02T02:22:44.421Z,5.70
2018-05-02T02:25:11.847Z,5.80
2018-05-02T02:27:39.290Z,5.70
2018-05-02T02:30:07.505Z,5.70
2018-05-02T02:32:34.949Z,5.70
2018-05-02T02:35:02.378Z,5.70
2018-05-02T02:37:30.603Z,5.60
2018-05-02T02:39:58.164Z,5.60
2018-05-02T02:42:25.587Z,5.60
2018-05-02T02:44:53.007Z,5.60
2018-05-02T02:47:20.524Z,5.60
2018-05-02T02:49:47.961Z,5.60
2018-05-02T02:52:15.443Z,5.50
2018-05-02T02:54:42.903Z,5.50
2018-05-02T02:57:10.330Z,5.50
2018-05-02T02:59:37.763Z,5.40
2018-05-02T03:02:05.972Z,5.40
2018-05-02T03:04:33.445Z,5.40
2018-05-02T03:07:00.885Z,5.30
2018-05-02T03:09:28.318Z,5.30
2018-05-02T03:11:55.751Z,5.30
2018-05-02T03:14:23.987Z,5.30
2018-05-02T03:16:51.419Z,5.20
2018-05-02T03:19:18.908Z,5.20
2018-05-02T03:21:46.330Z,5.20
2018-05-02T03:24:13.779Z,5.20
2018-05-02T03:26:42.032Z,5.10
2018-05-02T03:29:09.547Z,5.10
2018-05-02T03:31:37.764Z,5.00
2018-05-02T03:34:05.201Z,5.00
2018-05-02T03:36:32.652Z,5.00
2018-05-02T03:39:00.101Z,5.00
2018-05-02T03:41:27.563Z,5.00
2018-05-02T03:43:54.987Z,5.00
2018-05-02T03:46:22.434Z,5.00
2018-05-02T03:48:50.656Z,4.90
2018-05-02T03:51:18.095Z,4.90
2018-05-02T03:53:46.958Z,4.90
2018-05-02T03:56:14.519Z,4.90
2018-05-02T03:58:41.978Z,4.90
2018-05-02T04:01:22.493Z,4.90
2018-05-02T04:04:02.083Z,5.00
2018-05-02T04:06:41.610Z,5.00
2018-05-02T04:09:09.066Z,5.00
2018-05-02T04:11:37.239Z,5.00
2018-05-02T04:14:04.689Z,4.90
2018-05-02T04:16:32.188Z,4.90
2018-05-02T04:18:59.650Z,4.90
2018-05-02T04:21:27.170Z,4.90
2018-05-02T04:23:54.611Z,5.00
2018-05-02T04:26:22.105Z,5.00
2018-05-02T04:28:49.581Z,5.10
2018-05-02T04:31:17.105Z,5.10
2018-05-02T04:33:44.605Z,5.20
2018-05-02T04:36:12.139Z,5.30
2018-05-02T04:38:39.555Z,5.40
2018-05-02T04:41:07.162Z,5.50
2018-05-02T04:43:34.571Z,5.50
2018-05-02T04:46:02.116Z,5.60
2018-05-02T04:48:29.552Z,5.70
2018-05-02T04:50:57.037Z,5.80
2018-05-02T04:53:24.471Z,5.90
2018-05-02T04:55:51.891Z,6.00
2018-05-02T04:58:20.115Z,6.20
2018-05-02T05:00:47.567Z,6.10
2018-05-02T05:03:15.050Z,6.20
2018-05-02T05:05:42.520Z,6.30
2018-05-02T05:08:09.939Z,6.40
2018-05-02T05:10:37.376Z,6.50
2018-05-02T05:13:04.842Z,6.50
2018-05-02T05:15:32.297Z,6.70
2018-05-02T05:18:00.478Z,6.80
2018-05-02T05:20:27.916Z,6.80
2018-05-02T05:22:55.357Z,6.90
2018-05-02T05:25:23.613Z,7.00
2018-05-02T05:27:51.194Z,7.00
2018-05-02T05:30:18.590Z,7.10
2018-05-02T05:32:46.027Z,7.20
2018-05-02T05:35:13.564Z,7.30
2018-05-02T05:37:40.934Z,7.30
2018-05-02T05:40:08.367Z,7.40
2018-05-02T05:42:35.889Z,7.40
2018-05-02T05:45:03.325Z,7.40
2018-05-02T05:47:30.775Z,7.50
2018-05-02T05:49:58.251Z,7.50
2018-05-02T05:52:25.688Z,7.60
2018-05-02T05:54:53.127Z,7.60
2018-05-02T05:57:21.451Z,7.70
2018-05-02T05:59:48.888Z,7.70
2018-05-02T06:02:16.367Z,7.80
2018-05-02T06:04:43.817Z,7.90
2018-05-02T06:07:11.251Z,8.00
2018-05-02T06:09:38.678Z,8.00
2018-05-02T06:12:06.114Z,8.10
2018-05-02T06:14:33.694Z,8.20
2018-05-02T06:17:01.100Z,8.30
2018-05-02T06:19:28.589Z,8.40
2018-05-02T06:21:55.998Z,8.50
2018-05-02T06:24:23.469Z,8.60
2018-05-02T06:26:50.943Z,8.70
2018-05-02T06:29:18.966Z,8.70
2018-05-02T06:31:46.537Z,8.90
2018-05-02T06:34:14.749Z,9.00
2018-05-02T06:36:42.219Z,9.00
2018-05-02T06:39:09.630Z,9.10
2018-05-02T06:41:37.132Z,9.20
2018-05-02T06:44:04.553Z,9.30
2018-05-02T06:46:32.947Z,9.40
2018-05-02T06:49:00.366Z,9.50
2018-05-02T06:51:28.575Z,9.70
2018-05-02T06:53:56.011Z,9.70
2018-05-02T06:56:23.539Z,9.80
2018-05-02T06:58:51.055Z,9.90
2018-05-02T07:01:18.504Z,10.00
2018-05-02T07:03:45.980Z,10.10
2018-05-02T07:06:13.427Z,10.20
2018-05-02T07:08:40.903Z,10.30
2018-05-02T07:11:08.355Z,10.40
2018-05-02T07:13:35.862Z,10.40
2018-05-02T07:16:03.218Z,10.50
2018-05-02T07:18:31.434Z,10.70
2018-05-02T07:20:58.899Z,10.60
2018-05-02T07:23:26.352Z,10.70
2018-05-02T07:25:53.795Z,10.80
2018-05-02T07:28:21.231Z,10.90
2018-05-02T07:30:48.719Z,10.90
2018-05-02T07:33:16.166Z,11.10
2018-05-02T07:35:43.675Z,11.10
2018-05-02T07:38:11.873Z,11.30
2018-05-02T07:40:40.337Z,11.40
2018-05-02T07:43:07.809Z,11.40
2018-05-02T07:45:35.999Z,11.50
2018-05-02T07:48:03.530Z,11.50
2018-05-02T07:50:31.054Z,11.60
2018-05-02T07:52:58.491Z,11.70
2018-05-02T07:55:26.008Z,11.80
2018-05-02T07:57:53.370Z,11.90
2018-05-02T08:00:21.587Z,12.00
2018-05-02T08:02:49.040Z,12.00
2018-05-02T08:05:16.470Z,12.10
2018-05-02T08:07:43.904Z,12.20
2018-05-02T08:10:12.134Z,12.30
2018-05-02T08:12:39.564Z,12.30
2018-05-02T08:15:07.009Z,12.40
2018-05-02T08:17:34.453Z,12.50
2018-05-02T08:20:02.722Z,12.70
2018-05-02T08:22:30.180Z,12.60
2018-05-02T08:24:57.786Z,12.70
2018-05-02T08:27:25.247Z,12.80
2018-05-02T08:29:52.684Z,12.90
2018-05-02T08:32:20.214Z,13.00
2018-05-02T08:34:47.627Z,13.10
2018-05-02T08:37:15.107Z,13.20
2018-05-02T08:39:42.585Z,13.30
2018-05-02T08:42:10.956Z,13.40
2018-05-02T08:44:38.390Z,13.40
2018-05-02T08:47:05.842Z,13.50
2018-05-02T08:49:33.371Z,13.60
2018-05-02T08:52:00.796Z,13.60
2018-05-02T08:54:29.023Z,13.80
2018-05-02T08:56:56.454Z,13.80
2018-05-02T08:59:23.878Z,13.90
2018-05-02T09:01:51.448Z,13.90
2018-05-02T09:04:18.849Z,14.00
2018-05-02T09:06:46.287Z,14.20
2018-05-02T09:09:13.759Z,14.30
2018-05-02T09:11:41.219Z,14.40
2018-05-02T09:14:08.659Z,14.40
2018-05-02T09:16:36.154Z,14.40
2018-05-02T09:19:03.623Z,14.50
2018-05-02T09:21:31.056Z,14.50
2018-05-02T09:23:58.507Z,14.70
2018-05-02T09:26:25.960Z,14.60
2018-05-02T09:28:53.385Z,14.50
2018-05-02T09:31:21.594Z,14.60
2018-05-02T09:33:49.041Z,14.60
2018-05-02T09:36:16.467Z,14.60
2018-05-02T09:38:44.680Z,14.80
2018-05-02T09:41:12.137Z,14.80
2018-05-02T09:43:39.605Z,14.60
2018-05-02T09:46:07.055Z,14.60
2018-05-02T09:48:34.516Z,14.60
2018-05-02T09:51:01.979Z,14.60
2018-05-02T09:53:29.538Z,14.50
2018-05-02T09:55:56.987Z,14.40
2018-05-02T09:58:24.451Z,14.30
2018-05-02T10:00:51.914Z,14.40
2018-05-02T10:03:19.367Z,14.40
2018-05-02T10:05:46.812Z,14.40
2018-05-02T10:08:14.266Z,14.40
2018-05-02T10:10:41.691Z,14.30
2018-05-02T10:13:09.903Z,14.40
2018-05-02T10:15:37.359Z,14.40
2018-05-02T10:18:04.800Z,14.50
2018-05-02T10:20:32.244Z,14.60
2018-05-02T10:23:00.459Z,14.90
2018-05-02T10:25:27.897Z,14.90
2018-05-02T10:27:55.334Z,15.10
2018-05-02T10:30:22.851Z,15.40
2018-05-02T10:32:50.384Z,15.20
2018-05-02T10:35:17.853Z,15.30
2018-05-02T10:37:45.303Z,15.50
2018-05-02T10:40:12.782Z,15.80
2018-05-02T10:42:40.232Z,16.10
2018-05-02T10:45:07.688Z,16.20
2018-05-02T10:47:35.136Z,16.10
2018-05-02T10:50:02.600Z,16.20
2018-05-02T10:52:30.163Z,16.20
2018-05-02T10:54:57.616Z,16.30
2018-05-02T10:57:25.053Z,16.50
2018-05-02T10:59:52.505Z,16.60
2018-05-02T11:02:19.938Z,16.80
2018-05-02T11:04:48.141Z,16.90
2018-05-02T11:07:15.568Z,16.90
2018-05-02T11:09:43.791Z,16.60
2018-05-02T11:12:11.304Z,16.60
2018-05-02T11:14:39.512Z,16.40
2018-05-02T11:17:06.969Z,16.40
2018-05-02T11:19:34.429Z,16.50
2018-05-02T11:22:02.010Z,16.60
2018-05-02T11:24:29.333Z,16.90
2018-05-02T11:26:56.759Z,16.90
2018-05-02T11:29:24.978Z,17.00
2018-05-02T11:31:52.419Z,16.90
2018-05-02T11:34:19.915Z,17.10
2018-05-02T11:36:47.357Z,17.50
2018-05-02T11:39:14.791Z,17.50
2018-05-02T11:41:42.260Z,17.50
2018-05-02T11:44:09.815Z,17.60
2018-05-02T11:46:37.243Z,17.70
2018-05-02T11:49:04.680Z,17.90
2018-05-02T11:51:32.921Z,17.90
2018-05-02T11:54:00.354Z,17.90
2018-05-02T11:56:27.783Z,17.80
2018-05-02T11:58:56.109Z,17.90
2018-05-02T12:01:23.578Z,17.90
2018-05-02T12:03:51.091Z,18.10
2018-05-02T12:06:18.531Z,18.20
2018-05-02T12:08:46.719Z,18.20
2018-05-02T12:11:14.153Z,18.20
2018-05-02T12:13:42.407Z,18.30
2018-05-02T12:16:09.855Z,18.30
2018-05-02T12:18:37.290Z,18.40
2018-05-02T12:21:04.726Z,18.40
2018-05-02T12:23:32.171Z,18.40
2018-05-02T12:26:00.378Z,18.40
2018-05-02T12:28:27.825Z,18.40
2018-05-02T12:30:55.259Z,18.30
2018-05-02T12:33:22.696Z,18.30
2018-05-02T12:35:50.929Z,18.40
2018-05-02T12:38:18.349Z,18.40
2018-05-02T12:40:45.813Z,18.60
2018-05-02T12:43:13.304Z,18.50
2018-05-02T12:45:40.755Z,18.50
2018-05-02T12:48:08.218Z,18.50
2018-05-02T12:50:35.666Z,18.60
2018-05-02T12:53:03.113Z,18.60
2018-05-02T12:55:30.535Z,18.60
2018-05-02T12:57:58.759Z,18.70
2018-05-02T13:00:26.221Z,18.70
2018-05-02T13:02:53.682Z,18.80
2018-05-02T13:05:21.120Z,18.90
2018-05-02T13:07:48.555Z,18.90
2018-05-02T13:10:15.990Z,19.10
2018-05-02T13:12:43.544Z,19.20
2018-05-02T13:15:10.966Z,19.30
2018-05-02T13:17:38.423Z,19.30
2018-05-02T13:20:05.875Z,19.20
2018-05-02T13:22:33.305Z,19.20
2018-05-02T13:25:00.790Z,19.30
2018-05-02T13:27:28.228Z,19.30
2018-05-02T13:29:55.663Z,19.30
2018-05-02T13:32:23.155Z,19.30
2018-05-02T13:34:50.631Z,19.40
2018-05-02T13:37:18.072Z,19.30
2018-05-02T13:39:45.541Z,19.30
2018-05-02T13:42:13.029Z,19.30
2018-05-02T13:44:40.452Z,19.40
2018-05-02T13:47:07.879Z,19.60
2018-05-02T13:49:35.332Z,19.70
2018-05-02T13:52:02.835Z,20.00
2018-05-02T13:54:30.380Z,20.10
2018-05-02T13:56:57.856Z,20.00
2018-05-02T13:59:25.275Z,20.00
2018-05-02T14:01:52.709Z,20.20
2018-05-02T14:04:20.931Z,20.40
2018-05-02T14:06:48.379Z,20.30
2018-05-02T14:09:15.818Z,20.40
2018-05-02T14:11:43.255Z,20.60
2018-05-02T14:14:11.458Z,20.30
2018-05-02T14:16:38.907Z,20.30
2018-05-02T14:19:06.401Z,20.40
2018-05-02T14:21:33.852Z,20.60
2018-05-02T14:24:01.290Z,20.80
2018-05-02T14:26:28.760Z,21.10
2018-05-02T14:28:56.237Z,21.10
2018-05-02T14:31:23.716Z,21.30
2018-05-02T14:33:51.179Z,21.30
2018-05-02T14:36:18.627Z,21.30
2018-05-02T14:38:46.099Z,21.30
2018-05-02T14:41:13.555Z,21.40
2018-05-02T14:43:40.979Z,21.40
2018-05-02T14:46:08.419Z,21.50
2018-05-02T14:48:36.649Z,21.90
2018-05-02T14:51:04.085Z,21.80
2018-05-02T14:53:31.560Z,22.00
2018-05-02T14:55:59.002Z,22.30
2018-05-02T14:58:26.446Z,22.30
2018-05-02T15:00:53.927Z,22.40
2018-05-02T15:03:21.391Z,22.40
2018-05-02T15:05:48.814Z,22.50
2018-05-02T15:08:16.393Z,22.60
2018-05-02T15:10:43.768Z,22.90
2018-05-02T15:13:11.237Z,22.90
2018-05-02T15:15:38.724Z,22.60
2018-05-02T15:18:07.005Z,23.10
2018-05-02T15:20:35.688Z,23.40
2018-05-02T15:23:03.471Z,23.40
2018-05-02T15:25:31.724Z,23.60
2018-05-02T15:27:59.953Z,23.70
2018-05-02T15:30:27.377Z,23.70
2018-05-02T15:32:54.822Z,23.70
2018-05-02T15:35:23.011Z,23.90
2018-05-02T15:37:50.496Z,23.90
2018-05-02T15:40:18.175Z,24.10
2018-05-02T15:42:45.832Z,24.30
2018-05-02T15:45:13.380Z,24.50
2018-05-02T15:47:40.835Z,24.60
2018-05-02T15:50:08.273Z,24.70
2018-05-02T15:52:36.334Z,24.70
2018-05-02T15:55:04.603Z,24.60
2018-05-02T15:57:32.836Z,24.60
2018-05-02T16:00:00.271Z,24.60
2018-05-02T16:02:28.049Z,25.20
2018-05-02T16:04:55.507Z,24.90
2018-05-02T16:07:23.323Z,25.20
2018-05-02T16:09:51.261Z,25.50
2018-05-02T16:12:18.677Z,25.80
2018-05-02T16:14:46.143Z,25.90
2018-05-02T16:17:13.601Z,26.00
2018-05-02T16:19:41.075Z,25.90
2018-05-02T16:22:09.116Z,26.00
2018-05-02T16:24:38.248Z,25.90
2018-05-02T16:27:05.891Z,25.90
2018-05-02T16:29:33.487Z,25.60
2018-05-02T16:32:02.612Z,24.50
2018-05-02T16:34:30.867Z,22.60
2018-05-02T16:36:59.068Z,22.00
2018-05-02T16:39:26.502Z,22.00
2018-05-02T16:41:54.731Z,20.90
2018-05-02T16:44:22.167Z,20.90
2018-05-02T16:46:49.636Z,20.60
2018-05-02T16:49:17.095Z,20.40
2018-05-02T16:51:45.567Z,20.10
2018-05-02T16:54:13.019Z,19.90
2018-05-02T16:56:40.486Z,19.80
2018-05-02T16:59:07.935Z,19.60
2018-05-02T17:01:35.445Z,19.50
2018-05-02T17:04:02.890Z,19.40
2018-05-02T17:06:30.414Z,19.30
2018-05-02T17:08:57.879Z,19.10
2018-05-02T17:11:25.326Z,19.10
2018-05-02T17:13:52.823Z,19.00
2018-05-02T17:16:20.259Z,18.90
2018-05-02T17:18:47.807Z,18.80
2018-05-02T17:21:15.236Z,18.80
2018-05-02T17:23:42.747Z,18.70
2018-05-02T17:26:10.179Z,18.60
2018-05-02T17:28:37.632Z,18.50
2018-05-02T17:31:05.083Z,18.40
2018-05-02T17:33:32.518Z,18.30
2018-05-02T17:35:59.999Z,18.30
2018-05-02T17:38:27.465Z,18.30
2018-05-02T17:40:54.925Z,18.30
2018-05-02T17:43:22.483Z,18.20
2018-05-02T17:45:50.044Z,18.20
2018-05-02T17:48:17.495Z,18.20
2018-05-02T17:50:44.926Z,18.10
2018-05-02T17:53:12.381Z,18.10
2018-05-02T17:55:39.907Z,18.00
2018-05-02T17:58:07.338Z,17.90
2018-05-02T18:00:34.801Z,17.90
2018-05-02T18:03:02.353Z,17.90
2018-05-02T18:05:29.886Z,17.80
2018-05-02T18:07:57.355Z,17.70
2018-05-02T18:10:24.826Z,17.50
2018-05-02T18:12:52.217Z,17.40
2018-05-02T18:15:19.656Z,17.20
2018-05-02T18:17:48.605Z,17.00
2018-05-02T18:20:16.052Z,17.00
2018-05-02T18:22:43.552Z,17.00
2018-05-02T18:25:10.943Z,16.90
2018-05-02T18:27:39.138Z,16.70
2018-05-02T18:30:06.566Z,16.70
2018-05-02T18:32:34.771Z,16.60
2018-05-02T18:35:02.264Z,16.60
2018-05-02T18:37:29.733Z,16.60
2018-05-02T18:39:57.153Z,16.50
2018-05-02T18:42:24.634Z,16.40
2018-05-02T18:44:52.083Z,16.30
2018-05-02T18:47:19.526Z,16.20
2018-05-02T18:49:47.031Z,16.10
2018-05-02T18:52:14.463Z,16.10
2018-05-02T18:54:41.911Z,16.00
2018-05-02T18:57:09.375Z,16.00
2018-05-02T18:59:36.915Z,15.90
2018-05-02T19:02:04.387Z,15.90
2018-05-02T19:04:31.838Z,15.80
2018-05-02T19:06:59.324Z,15.70
2018-05-02T19:09:26.760Z,15.60
2018-05-02T19:11:54.190Z,15.50
2018-05-02T19:14:21.641Z,15.40
2018-05-02T19:16:49.059Z,15.40
2018-05-02T19:19:22.271Z,15.30
2018-05-02T19:21:50.511Z,15.20
2018-05-02T19:24:17.955Z,15.20
2018-05-02T19:26:45.500Z,15.10
2018-05-02T19:29:12.961Z,15.00
2018-05-02T19:31:46.001Z,14.90
2018-05-02T19:34:13.426Z,14.90
2018-05-02T19:36:40.868Z,14.80
2018-05-02T19:39:08.295Z,14.70
2018-05-02T19:41:41.489Z,14.70
2018-05-02T19:44:08.919Z,14.70
2018-05-02T19:46:37.144Z,14.60
2018-05-02T19:49:04.644Z,14.50
2018-05-02T19:51:37.774Z,14.60
2018-05-02T19:54:05.957Z,14.50
2018-05-02T19:56:33.387Z,14.50
2018-05-02T19:59:01.590Z,14.40
2018-05-02T20:01:34.749Z,14.40
2018-05-02T20:04:02.970Z,14.40
2018-05-02T20:06:30.454Z,14.40
2018-05-02T20:09:03.694Z,14.30
2018-05-02T20:11:36.900Z,14.20
2018-05-02T20:14:04.788Z,14.20
2018-05-02T20:16:32.221Z,14.20
2018-05-02T20:18:59.644Z,14.10
2018-05-02T20:21:27.859Z,14.00
2018-05-02T20:23:55.315Z,13.90
2018-05-02T20:26:22.719Z,13.90
2018-05-02T20:28:50.160Z,13.80
2018-05-02T20:31:17.592Z,13.90
2018-05-02T20:33:45.036Z,13.90
2018-05-02T20:36:12.521Z,13.80
2018-05-02T20:38:39.981Z,13.70
2018-05-02T20:41:07.427Z,13.60
2018-05-02T20:43:34.851Z,13.60
2018-05-02T20:46:02.342Z,13.50
2018-05-02T20:48:29.819Z,13.40
2018-05-02T20:50:57.256Z,13.40
2018-05-02T20:53:24.730Z,13.30
2018-05-02T20:55:52.272Z,13.30
2018-05-02T20:58:19.731Z,13.20
2018-05-02T21:00:47.171Z,13.20
2018-05-02T21:03:14.647Z,13.10
2018-05-02T21:05:42.100Z,13.10
2018-05-02T21:08:09.553Z,13.10
2018-05-02T21:10:36.989Z,13.10
2018-05-02T21:13:04.495Z,13.10
2018-05-02T21:15:31.936Z,13.00
2018-05-02T21:17:59.391Z,13.00
2018-05-02T21:20:26.883Z,13.00
2018-05-02T21:22:55.127Z,13.00
2018-05-02T21:25:22.568Z,12.90
2018-05-02T21:27:50.063Z,12.90
2018-05-02T21:30:17.506Z,12.90
2018-05-02T21:32:44.979Z,12.90
2018-05-02T21:35:12.427Z,12.90
2018-05-02T21:37:39.871Z,12.90
2018-05-02T21:40:07.328Z,12.90
2018-05-02T21:42:34.886Z,12.80
2018-05-02T21:45:02.427Z,12.80
2018-05-02T21:47:29.839Z,12.80
2018-05-02T21:49:58.095Z,12.70
2018-05-02T21:52:25.550Z,12.70
2018-05-02T21:54:53.051Z,12.70
2018-05-02T21:57:20.543Z,12.70
2018-05-02T21:59:47.984Z,12.70
2018-05-02T22:02:15.428Z,12.70
2018-05-02T22:04:42.938Z,12.70
2018-05-02T22:07:10.429Z,12.60
2018-05-02T22:09:38.640Z,12.60
2018-05-02T22:12:06.122Z,12.60
2018-05-02T22:14:33.559Z,12.60
2018-05-02T22:17:00.995Z,12.60
2018-05-02T22:19:28.510Z,12.60
2018-05-02T22:21:55.939Z,12.50
2018-05-02T22:24:23.379Z,12.50
2018-05-02T22:26:50.839Z,12.50
2018-05-02T22:29:18.282Z,12.40
2018-05-02T22:31:45.798Z,12.40
2018-05-02T22:34:13.248Z,12.40
2018-05-02T22:36:40.787Z,12.30
2018-05-02T22:39:08.242Z,12.30
2018-05-02T22:41:35.710Z,12.30
2018-05-02T22:44:03.192Z,12.20
2018-05-02T22:46:30.713Z,12.20
2018-05-02T22:48:58.165Z,12.20
2018-05-02T22:51:25.638Z,12.20
2018-05-02T22:53:53.105Z,12.20
2018-05-02T22:56:20.639Z,12.10
2018-05-02T22:58:48.111Z,12.10
2018-05-02T23:01:15.548Z,12.10
2018-05-02T23:03:42.976Z,12.00
2018-05-02T23:06:11.173Z,12.00
2018-05-02T23:08:38.632Z,11.90
2018-05-02T23:11:06.106Z,11.90
2018-05-02T23:13:33.545Z,11.90
2018-05-02T23:16:00.985Z,11.80
2018-05-02T23:18:28.428Z,11.70
2018-05-02T23:20:56.647Z,11.60
2018-05-02T23:23:24.115Z,11.60
2018-05-02T23:25:51.564Z,11.50
2018-05-02T23:28:18.989Z,11.50
2018-05-02T23:30:46.479Z,11.40
2018-05-02T23:33:13.931Z,11.40
2018-05-02T23:35:41.482Z,11.30
2018-05-02T23:38:08.890Z,11.30
2018-05-02T23:40:36.411Z,11.20
2018-05-02T23:43:03.927Z,11.10
2018-05-02T23:45:31.379Z,11.10
2018-05-02T23:47:59.602Z,11.00
2018-05-02T23:50:27.043Z,11.00
2018-05-02T23:52:54.518Z,11.00
2018-05-02T23:55:21.983Z,10.90
2018-05-02T23:57:49.425Z,10.80
